Terminal Aerodrome Forecast
Issued by NWS

Home | Current Version | Previous Version | Text Only | Print | Product List | Glossary On
Versions: 1 2 3 4 5 6 7 8 9 10 11 12 13 14 15
000
FTUS43 KABR 131728
TAFMBG
TAF
KMBG 131728Z 1318/1418 32021G30KT P6SM BKN040
     FM131900 33022G32KT P6SM BKN030
     FM140000 33016G24KT P6SM OVC025
     FM140300 33011KT P6SM BKN025
     FM141100 31010KT 4SM -SN OVC015
     FM141500 33011KT P6SM OVC015
     FM141700 34014G21KT P6SM OVC025=

USA.gov is the U.S. government's official web portal to all federal, state and local government web resources and services.